sensor_id;sensor_type;location;lat;lon;timestamp;pressure;altitude;pressure_sealevel;temperature;humidity
7668;BME280;3876;42.204;24.686;2023-12-20T00:02:04;99851.25;;;3.71;100.00
7668;BME280;3876;42.204;24.686;2023-12-20T00:04:31;99842.75;;;3.63;100.00
7668;BME280;3876;42.204;24.686;2023-12-20T00:06:58;99856.31;;;3.68;100.00
7668;BME280;3876;42.204;24.686;2023-12-20T00:09:25;99852.06;;;3.67;100.00
7668;BME280;3876;42.204;24.686;2023-12-20T00:11:51;99853.75;;;3.66;100.00
7668;BME280;3876;42.204;24.686;2023-12-20T00:14:19;99852.88;;;3.66;100.00
7668;BME280;3876;42.204;24.686;2023-12-20T00:16:47;99831.75;;;3.58;100.00
7668;BME280;3876;42.204;24.686;2023-12-20T00:19:13;99846.16;;;3.65;100.00
7668;BME280;3876;42.204;24.686;2023-12-20T00:21:40;99843.56;;;3.62;100.00
7668;BME280;3876;42.204;24.686;2023-12-20T00:24:07;99822.41;;;3.51;100.00
7668;BME280;3876;42.204;24.686;2023-12-20T00:26:34;99839.34;;;3.61;100.00
7668;BME280;3876;42.204;24.686;2023-12-20T00:29:01;99827.50;;;3.60;100.00
7668;BME280;3876;42.204;24.686;2023-12-20T00:31:29;99830.06;;;3.60;100.00
7668;BME280;3876;42.204;24.686;2023-12-20T00:33:56;99821.63;;;3.61;100.00
7668;BME280;3876;42.204;24.686;2023-12-20T00:36:22;99817.38;;;3.63;100.00
7668;BME280;3876;42.204;24.686;2023-12-20T00:38:49;99814.00;;;3.61;100.00
7668;BME280;3876;42.204;24.686;2023-12-20T00:41:16;99814.00;;;3.59;100.00
7668;BME280;3876;42.204;24.686;2023-12-20T00:43:43;99807.22;;;3.57;100.00
7668;BME280;3876;42.204;24.686;2023-12-20T00:46:10;99798.78;;;3.55;100.00
7668;BME280;3876;42.204;24.686;2023-12-20T00:48:38;99805.53;;;3.56;100.00
7668;BME280;3876;42.204;24.686;2023-12-20T00:51:07;99803.81;;;3.53;100.00
7668;BME280;3876;42.204;24.686;2023-12-20T00:53:34;99800.44;;;3.53;100.00
7668;BME280;3876;42.204;24.686;2023-12-20T00:56:00;99798.78;;;3.52;100.00
7668;BME280;3876;42.204;24.686;2023-12-20T00:58:27;99790.28;;;3.47;100.00
7668;BME280;3876;42.204;24.686;2023-12-20T01:00:54;99798.75;;;3.49;100.00
7668;BME280;3876;42.204;24.686;2023-12-20T01:03:21;99798.75;;;3.49;100.00
7668;BME280;3876;42.204;24.686;2023-12-20T01:05:49;99791.16;;;3.49;100.00
7668;BME280;3876;42.204;24.686;2023-12-20T01:08:15;99791.09;;;3.46;100.00
7668;BME280;3876;42.204;24.686;2023-12-20T01:10:42;99788.56;;;3.41;100.00
7668;BME280;3876;42.204;24.686;2023-12-20T01:13:09;99787.75;;;3.42;100.00
7668;BME280;3876;42.204;24.686;2023-12-20T01:15:36;99791.94;;;3.39;100.00
7668;BME280;3876;42.204;24.686;2023-12-20T01:18:03;99774.97;;;3.27;100.00
7668;BME280;3876;42.204;24.686;2023-12-20T01:20:29;99769.88;;;3.16;100.00
7668;BME280;3876;42.204;24.686;2023-12-20T01:22:58;99765.59;;;3.03;100.00
7668;BME280;3876;42.204;24.686;2023-12-20T01:25:24;99757.91;;;2.93;100.00
7668;BME280;3876;42.204;24.686;2023-12-20T01:27:51;99752.78;;;2.85;100.00
7668;BME280;3876;42.204;24.686;2023-12-20T01:30:18;99731.63;;;2.74;100.00
7668;BME280;3876;42.204;24.686;2023-12-20T01:32:44;99749.41;;;2.88;100.00
7668;BME280;3876;42.204;24.686;2023-12-20T01:35:11;99744.38;;;2.86;100.00
7668;BME280;3876;42.204;24.686;2023-12-20T01:37:38;99738.47;;;2.87;100.00
7668;BME280;3876;42.204;24.686;2023-12-20T01:40:08;99740.16;;;2.88;100.00
7668;BME280;3876;42.204;24.686;2023-12-20T01:42:34;99744.41;;;2.92;100.00
7668;BME280;3876;42.204;24.686;2023-12-20T01:45:01;99700.41;;;2.75;100.00
7668;BME280;3876;42.204;24.686;2023-12-20T01:47:29;99730.06;;;2.96;100.00
7668;BME280;3876;42.204;24.686;2023-12-20T01:49:55;99723.34;;;2.96;100.00
7668;BME280;3876;42.204;24.686;2023-12-20T01:52:23;99720.81;;;2.99;100.00
7668;BME280;3876;42.204;24.686;2023-12-20T01:54:51;99724.19;;;3.01;100.00
7668;BME280;3876;42.204;24.686;2023-12-20T01:57:21;99714.88;;;2.97;100.00
7668;BME280;3876;42.204;24.686;2023-12-20T01:59:48;99721.69;;;3.03;100.00
7668;BME280;3876;42.204;24.686;2023-12-20T02:02:15;99714.06;;;3.04;100.00
7668;BME280;3876;42.204;24.686;2023-12-20T02:04:41;99704.81;;;3.03;100.00
7668;BME280;3876;42.204;24.686;2023-12-20T02:07:08;99685.34;;;2.93;100.00
7668;BME280;3876;42.204;24.686;2023-12-20T02:09:36;99692.97;;;3.02;100.00
7668;BME280;3876;42.204;24.686;2023-12-20T02:12:03;99683.69;;;3.04;100.00
7668;BME280;3876;42.204;24.686;2023-12-20T02:14:31;99694.66;;;3.02;100.00
7668;BME280;3876;42.204;24.686;2023-12-20T02:16:58;99696.34;;;3.03;100.00
7668;BME280;3876;42.204;24.686;2023-12-20T02:19:25;99691.25;;;3.01;100.00
7668;BME280;3876;42.204;24.686;2023-12-20T02:22:07;99687.00;;;2.94;100.00
7668;BME280;3876;42.204;24.686;2023-12-20T02:24:33;99676.06;;;2.94;100.00
7668;BME280;3876;42.204;24.686;2023-12-20T02:27:00;99687.88;;;3.01;100.00
7668;BME280;3876;42.204;24.686;2023-12-20T02:29:27;99687.88;;;3.01;100.00
7668;BME280;3876;42.204;24.686;2023-12-20T02:31:53;99687.06;;;3.02;100.00
7668;BME280;3876;42.204;24.686;2023-12-20T02:34:20;99679.47;;;3.00;100.00
7668;BME280;3876;42.204;24.686;2023-12-20T02:36:47;99677.75;;;2.99;100.00
7668;BME280;3876;42.204;24.686;2023-12-20T02:39:16;99683.66;;;2.95;100.00
7668;BME280;3876;42.204;24.686;2023-12-20T02:41:42;99673.50;;;2.89;100.00
7668;BME280;3876;42.204;24.686;2023-12-20T02:44:09;99669.28;;;2.94;100.00
7668;BME280;3876;42.204;24.686;2023-12-20T02:46:36;99678.56;;;2.92;100.00
7668;BME280;3876;42.204;24.686;2023-12-20T02:49:02;99672.69;;;2.98;100.00
7668;BME280;3876;42.204;24.686;2023-12-20T02:51:29;99664.19;;;2.88;100.00
7668;BME280;3876;42.204;24.686;2023-12-20T02:53:56;99652.34;;;2.80;100.00
7668;BME280;3876;42.204;24.686;2023-12-20T02:56:26;99653.19;;;2.77;100.00
7668;BME280;3876;42.204;24.686;2023-12-20T02:58:53;99641.31;;;2.67;100.00
7668;BME280;3876;42.204;24.686;2023-12-20T03:01:20;99659.03;;;2.72;100.00
7668;BME280;3876;42.204;24.686;2023-12-20T03:03:46;99651.44;;;2.67;100.00
7668;BME280;3876;42.204;24.686;2023-12-20T03:06:16;99659.84;;;2.66;100.00
7668;BME280;3876;42.204;24.686;2023-12-20T03:08:43;99652.28;;;2.68;100.00
7668;BME280;3876;42.204;24.686;2023-12-20T03:11:10;99648.91;;;2.67;100.00
7668;BME280;3876;42.204;24.686;2023-12-20T03:13:38;99652.28;;;2.68;100.00
7668;BME280;3876;42.204;24.686;2023-12-20T03:16:08;99648.09;;;2.68;100.00
7668;BME280;3876;42.204;24.686;2023-12-20T03:18:34;99632.81;;;2.56;100.00
7668;BME280;3876;42.204;24.686;2023-12-20T03:21:01;99644.69;;;2.66;100.00
7668;BME280;3876;42.204;24.686;2023-12-20T03:23:29;99646.34;;;2.61;100.00
7668;BME280;3876;42.204;24.686;2023-12-20T03:25:57;99639.59;;;2.60;100.00
7668;BME280;3876;42.204;24.686;2023-12-20T03:28:24;99637.09;;;2.68;100.00
7668;BME280;3876;42.204;24.686;2023-12-20T03:30:52;99626.91;;;2.57;100.00
7668;BME280;3876;42.204;24.686;2023-12-20T03:33:19;99632.84;;;2.62;100.00
7668;BME280;3876;42.204;24.686;2023-12-20T03:35:46;99633.69;;;2.61;100.00
7668;BME280;3876;42.204;24.686;2023-12-20T03:38:13;99626.09;;;2.58;100.00
7668;BME280;3876;42.204;24.686;2023-12-20T03:40:39;99624.38;;;2.57;100.00
7668;BME280;3876;42.204;24.686;2023-12-20T03:43:06;99625.22;;;2.56;100.00
7668;BME280;3876;42.204;24.686;2023-12-20T03:45:33;99622.69;;;2.56;100.00
7668;BME280;3876;42.204;24.686;2023-12-20T03:48:01;99625.22;;;2.54;100.00
7668;BME280;3876;42.204;24.686;2023-12-20T03:50:28;99621.00;;;2.55;100.00
7668;BME280;3876;42.204;24.686;2023-12-20T03:52:55;99617.59;;;2.50;100.00
7668;BME280;3876;42.204;24.686;2023-12-20T03:55:22;99628.59;;;2.52;100.00
7668;BME280;3876;42.204;24.686;2023-12-20T03:57:48;99624.34;;;2.51;100.00
7668;BME280;3876;42.204;24.686;2023-12-20T04:00:15;99627.72;;;2.50;100.00
7668;BME280;3876;42.204;24.686;2023-12-20T04:02:42;99636.13;;;2.49;100.00
7668;BME280;3876;42.204;24.686;2023-12-20T04:05:10;99628.56;;;2.47;100.00
7668;BME280;3876;42.204;24.686;2023-12-20T04:07:37;99624.31;;;2.45;100.00
7668;BME280;3876;42.204;24.686;2023-12-20T04:10:05;99618.38;;;2.38;100.00
7668;BME280;3876;42.204;24.686;2023-12-20T04:12:32;99620.91;;;2.43;100.00
7668;BME280;3876;42.204;24.686;2023-12-20T04:14:59;99607.44;;;2.41;100.00
7668;BME280;3876;42.204;24.686;2023-12-20T04:17:26;99604.03;;;2.36;100.00
7668;BME280;3876;42.204;24.686;2023-12-20T04:19:52;99612.47;;;2.35;100.00
7668;BME280;3876;42.204;24.686;2023-12-20T04:22:21;99620.03;;;2.35;100.00
7668;BME280;3876;42.204;24.686;2023-12-20T04:24:47;99617.50;;;2.35;100.00
7668;BME280;3876;42.204;24.686;2023-12-20T04:27:14;99614.09;;;2.33;100.00
7668;BME280;3876;42.204;24.686;2023-12-20T04:29:41;99618.31;;;2.31;100.00
7668;BME280;3876;42.204;24.686;2023-12-20T04:32:08;99614.09;;;2.28;100.00
7668;BME280;3876;42.204;24.686;2023-12-20T04:34:36;99614.94;;;2.26;100.00
7668;BME280;3876;42.204;24.686;2023-12-20T04:37:03;99618.28;;;2.25;100.00
7668;BME280;3876;42.204;24.686;2023-12-20T04:39:31;99614.88;;;2.21;100.00
7668;BME280;3876;42.204;24.686;2023-12-20T04:41:58;99591.19;;;2.07;100.00
7668;BME280;3876;42.204;24.686;2023-12-20T04:44:25;99599.69;;;2.15;100.00
7668;BME280;3876;42.204;24.686;2023-12-20T04:46:52;99597.97;;;2.13;100.00
7668;BME280;3876;42.204;24.686;2023-12-20T04:49:18;99592.06;;;2.13;100.00
7668;BME280;3876;42.204;24.686;2023-12-20T04:51:45;99592.91;;;2.11;100.00
7668;BME280;3876;42.204;24.686;2023-12-20T04:54:12;99592.91;;;2.11;100.00
7668;BME280;3876;42.204;24.686;2023-12-20T04:56:40;99590.38;;;2.06;100.00
7668;BME280;3876;42.204;24.686;2023-12-20T04:59:07;99592.03;;;2.07;100.00
7668;BME280;3876;42.204;24.686;2023-12-20T05:01:34;99586.13;;;2.07;100.00
7668;BME280;3876;42.204;24.686;2023-12-20T05:04:00;99570.06;;;1.97;100.00
7668;BME280;3876;42.204;24.686;2023-12-20T05:06:27;99583.59;;;2.05;100.00
7668;BME280;3876;42.204;24.686;2023-12-20T05:08:54;99559.88;;;1.87;100.00
7668;BME280;3876;42.204;24.686;2023-12-20T05:11:21;99580.22;;;2.03;100.00
7668;BME280;3876;42.204;24.686;2023-12-20T05:13:49;99571.78;;;2.01;100.00
7668;BME280;3876;42.204;24.686;2023-12-20T05:16:16;99574.28;;;1.98;100.00
7668;BME280;3876;42.204;24.686;2023-12-20T05:18:43;99573.44;;;1.96;100.00
7668;BME280;3876;42.204;24.686;2023-12-20T05:21:10;99575.09;;;1.97;100.00
7668;BME280;3876;42.204;24.686;2023-12-20T05:23:36;99570.91;;;1.98;100.00
7668;BME280;3876;42.204;24.686;2023-12-20T05:26:03;99573.44;;;1.96;100.00
7668;BME280;3876;42.204;24.686;2023-12-20T05:28:30;99554.88;;;1.94;100.00
7668;BME280;3876;42.204;24.686;2023-12-20T05:30:58;99556.53;;;1.92;100.00
7668;BME280;3876;42.204;24.686;2023-12-20T05:33:24;99563.28;;;1.90;100.00
7668;BME280;3876;42.204;24.686;2023-12-20T05:35:51;99553.19;;;1.90;100.00
7668;BME280;3876;42.204;24.686;2023-12-20T05:38:18;99552.28;;;1.88;100.00
7668;BME280;3876;42.204;24.686;2023-12-20T05:40:45;99548.94;;;1.91;100.00
7668;BME280;3876;42.204;24.686;2023-12-20T05:43:11;99548.09;;;1.87;100.00
7668;BME280;3876;42.204;24.686;2023-12-20T05:45:38;99534.50;;;1.73;100.00
7668;BME280;3876;42.204;24.686;2023-12-20T05:48:06;99541.31;;;1.80;100.00
7668;BME280;3876;42.204;24.686;2023-12-20T05:50:33;99541.31;;;1.80;100.00
7668;BME280;3876;42.204;24.686;2023-12-20T05:53:02;99542.13;;;1.79;100.00
7668;BME280;3876;42.204;24.686;2023-12-20T05:55:28;99543.81;;;1.79;100.00
7668;BME280;3876;42.204;24.686;2023-12-20T05:57:55;99537.91;;;1.78;100.00
7668;BME280;3876;42.204;24.686;2023-12-20T06:00:22;99539.59;;;1.76;100.00
7668;BME280;3876;42.204;24.686;2023-12-20T06:02:49;99545.47;;;1.78;100.00
7668;BME280;3876;42.204;24.686;2023-12-20T06:05:17;99534.53;;;1.76;100.00
7668;BME280;3876;42.204;24.686;2023-12-20T06:07:43;99527.78;;;1.77;100.00
7668;BME280;3876;42.204;24.686;2023-12-20T06:10:10;99532.84;;;1.78;100.00
7668;BME280;3876;42.204;24.686;2023-12-20T06:12:37;99505.88;;;1.71;100.00
7668;BME280;3876;42.204;24.686;2023-12-20T06:15:04;99533.78;;;1.91;100.00
7668;BME280;3876;42.204;24.686;2023-12-20T06:17:31;99538.91;;;1.97;100.00
7668;BME280;3876;42.204;24.686;2023-12-20T06:19:58;99536.34;;;1.98;100.00
7668;BME280;3876;42.204;24.686;2023-12-20T06:22:26;99534.66;;;1.97;100.00
7668;BME280;3876;42.204;24.686;2023-12-20T06:24:52;99533.00;;;1.99;100.00
7668;BME280;3876;42.204;24.686;2023-12-20T06:27:19;99533.00;;;1.99;100.00
7668;BME280;3876;42.204;24.686;2023-12-20T06:29:46;99532.97;;;1.96;100.00
7668;BME280;3876;42.204;24.686;2023-12-20T06:32:12;99532.13;;;1.97;100.00
7668;BME280;3876;42.204;24.686;2023-12-20T06:34:39;99526.25;;;1.98;100.00
7668;BME280;3876;42.204;24.686;2023-12-20T06:37:06;99527.06;;;1.97;100.00
7668;BME280;3876;42.204;24.686;2023-12-20T06:39:35;99527.09;;;1.99;100.00
7668;BME280;3876;42.204;24.686;2023-12-20T06:42:02;99536.34;;;1.98;100.00
7668;BME280;3876;42.204;24.686;2023-12-20T06:44:29;99530.47;;;1.99;100.00
7668;BME280;3876;42.204;24.686;2023-12-20T06:46:56;99537.22;;;2.02;100.00
7668;BME280;3876;42.204;24.686;2023-12-20T06:49:23;99538.94;;;2.03;100.00
7668;BME280;3876;42.204;24.686;2023-12-20T06:51:50;99541.44;;;2.04;100.00
7668;BME280;3876;42.204;24.686;2023-12-20T06:54:16;99527.97;;;2.02;100.00
7668;BME280;3876;42.204;24.686;2023-12-20T06:56:45;99527.97;;;2.05;100.00
7668;BME280;3876;42.204;24.686;2023-12-20T06:59:11;99527.97;;;2.07;100.00
7668;BME280;3876;42.204;24.686;2023-12-20T07:01:38;99517.84;;;2.02;100.00
7668;BME280;3876;42.204;24.686;2023-12-20T07:04:05;99500.13;;;2.01;100.00
7668;BME280;3876;42.204;24.686;2023-12-20T07:06:32;99520.41;;;2.08;100.00
7668;BME280;3876;42.204;24.686;2023-12-20T07:08:58;99522.13;;;2.09;100.00
7668;BME280;3876;42.204;24.686;2023-12-20T07:11:25;99518.75;;;2.13;100.00
7668;BME280;3876;42.204;24.686;2023-12-20T07:13:53;99520.47;;;2.18;100.00
7668;BME280;3876;42.204;24.686;2023-12-20T07:16:20;99507.78;;;2.15;100.00
7668;BME280;3876;42.204;24.686;2023-12-20T07:18:48;99507.81;;;2.18;100.00
7668;BME280;3876;42.204;24.686;2023-12-20T07:21:14;99502.78;;;2.24;100.00
7668;BME280;3876;42.204;24.686;2023-12-20T07:23:41;99501.13;;;2.29;100.00
7668;BME280;3876;42.204;24.686;2023-12-20T07:26:08;99498.59;;;2.33;100.00
7668;BME280;3876;42.204;24.686;2023-12-20T07:28:35;99494.41;;;2.34;100.00
7668;BME280;3876;42.204;24.686;2023-12-20T07:31:03;99492.69;;;2.33;100.00
7668;BME280;3876;42.204;24.686;2023-12-20T07:33:30;99483.47;;;2.38;100.00
7668;BME280;3876;42.204;24.686;2023-12-20T07:35:56;99491.06;;;2.44;100.00
7668;BME280;3876;42.204;24.686;2023-12-20T07:38:24;99486.88;;;2.47;100.00
7668;BME280;3876;42.204;24.686;2023-12-20T07:40:50;99487.72;;;2.51;100.00
7668;BME280;3876;42.204;24.686;2023-12-20T07:43:17;99494.47;;;2.56;100.00
7668;BME280;3876;42.204;24.686;2023-12-20T07:45:44;99486.91;;;2.62;100.00
7668;BME280;3876;42.204;24.686;2023-12-20T07:48:12;99481.03;;;2.68;100.00
7668;BME280;3876;42.204;24.686;2023-12-20T07:50:39;99475.97;;;2.76;100.00
7668;BME280;3876;42.204;24.686;2023-12-20T07:53:06;99479.38;;;2.81;100.00
7668;BME280;3876;42.204;24.686;2023-12-20T07:55:32;99474.31;;;2.91;100.00
7668;BME280;3876;42.204;24.686;2023-12-20T07:58:00;99461.66;;;2.96;100.00
7668;BME280;3876;42.204;24.686;2023-12-20T08:00:27;99459.16;;;3.06;100.00
7668;BME280;3876;42.204;24.686;2023-12-20T08:02:54;99462.53;;;3.21;100.00
7668;BME280;3876;42.204;24.686;2023-12-20T08:05:22;99468.44;;;3.29;100.00
7668;BME280;3876;42.204;24.686;2023-12-20T08:07:48;99467.63;;;3.33;100.00
7668;BME280;3876;42.204;24.686;2023-12-20T08:10:15;99461.66;;;3.43;100.00
7668;BME280;3876;42.204;24.686;2023-12-20T08:12:44;99459.97;;;3.49;100.00
7668;BME280;3876;42.204;24.686;2023-12-20T08:15:11;99452.38;;;3.51;100.00
7668;BME280;3876;42.204;24.686;2023-12-20T08:17:37;99453.22;;;3.59;100.00
7668;BME280;3876;42.204;24.686;2023-12-20T08:20:05;99451.53;;;3.61;100.00
7668;BME280;3876;42.204;24.686;2023-12-20T08:22:33;99444.75;;;3.77;100.00
7668;BME280;3876;42.204;24.686;2023-12-20T08:25:00;99457.41;;;3.87;100.00
7668;BME280;3876;42.204;24.686;2023-12-20T08:27:27;99446.38;;;3.93;100.00
7668;BME280;3876;42.204;24.686;2023-12-20T08:29:53;99445.50;;;4.01;100.00
7668;BME280;3876;42.204;24.686;2023-12-20T08:32:20;99434.50;;;4.10;100.00
7668;BME280;3876;42.204;24.686;2023-12-20T08:34:47;99418.44;;;4.09;100.00
7668;BME280;3876;42.204;24.686;2023-12-20T08:37:13;99428.44;;;4.37;100.00
7668;BME280;3876;42.204;24.686;2023-12-20T08:39:42;99426.72;;;4.45;100.00
7668;BME280;3876;42.204;24.686;2023-12-20T08:42:09;99422.41;;;4.59;100.00
7668;BME280;3876;42.204;24.686;2023-12-20T08:44:36;99421.53;;;4.63;100.00
7668;BME280;3876;42.204;24.686;2023-12-20T08:47:03;99414.69;;;4.77;100.00
7668;BME280;3876;42.204;24.686;2023-12-20T08:49:30;99409.50;;;4.89;100.00
7668;BME280;3876;42.204;24.686;2023-12-20T08:51:56;99410.25;;;5.02;100.00
7668;BME280;3876;42.204;24.686;2023-12-20T08:54:23;99410.16;;;5.15;100.00
7668;BME280;3876;42.204;24.686;2023-12-20T08:56:51;99399.09;;;5.22;100.00
7668;BME280;3876;42.204;24.686;2023-12-20T08:59:18;99393.91;;;5.32;100.00
7668;BME280;3876;42.204;24.686;2023-12-20T09:01:45;99384.50;;;5.41;100.00
7668;BME280;3876;42.204;24.686;2023-12-20T09:04:13;99378.41;;;5.59;100.00
7668;BME280;3876;42.204;24.686;2023-12-20T09:06:39;99374.00;;;5.74;100.00
7668;BME280;3876;42.204;24.686;2023-12-20T09:09:06;99373.06;;;5.80;100.00
7668;BME280;3876;42.204;24.686;2023-12-20T09:11:35;99364.44;;;5.95;100.00
7668;BME280;3876;42.204;24.686;2023-12-20T09:14:03;99350.88;;;5.97;100.00
7668;BME280;3876;42.204;24.686;2023-12-20T09:16:30;99357.31;;;6.22;100.00
7668;BME280;3876;42.204;24.686;2023-12-20T09:18:57;99343.69;;;6.26;100.00
7668;BME280;3876;42.204;24.686;2023-12-20T09:21:24;99339.34;;;6.33;100.00
7668;BME280;3876;42.204;24.686;2023-12-20T09:23:51;99334.09;;;6.45;100.00
7668;BME280;3876;42.204;24.686;2023-12-20T09:26:19;99335.69;;;6.52;100.00
7668;BME280;3876;42.204;24.686;2023-12-20T09:28:46;99334.69;;;6.61;100.00
7668;BME280;3876;42.204;24.686;2023-12-20T09:31:14;99324.34;;;6.70;100.00
7668;BME280;3876;42.204;24.686;2023-12-20T09:33:41;99328.50;;;6.77;100.00
7668;BME280;3876;42.204;24.686;2023-12-20T09:36:08;99324.88;;;6.90;100.00
7668;BME280;3876;42.204;24.686;2023-12-20T09:38:34;99314.56;;;6.98;100.00
7668;BME280;3876;42.204;24.686;2023-12-20T09:41:01;99295.94;;;6.94;100.00
7668;BME280;3876;42.204;24.686;2023-12-20T09:43:30;99305.06;;;7.07;100.00
7668;BME280;3876;42.204;24.686;2023-12-20T09:46:00;99305.81;;;7.12;100.00
7668;BME280;3876;42.204;24.686;2023-12-20T09:48:30;99298.03;;;7.18;100.00
7668;BME280;3876;42.204;24.686;2023-12-20T09:50:57;99262.59;;;7.06;100.00
7668;BME280;3876;42.204;24.686;2023-12-20T09:53:24;99282.44;;;7.33;100.00
7668;BME280;3876;42.204;24.686;2023-12-20T09:55:55;99270.78;;;7.23;100.00
7668;BME280;3876;42.204;24.686;2023-12-20T09:58:24;99270.66;;;7.29;100.00
7668;BME280;3876;42.204;24.686;2023-12-20T10:00:51;99273.97;;;7.33;100.00
7668;BME280;3876;42.204;24.686;2023-12-20T10:03:24;99258.50;;;7.40;100.00
7668;BME280;3876;42.204;24.686;2023-12-20T10:05:55;99236.41;;;7.43;100.00
7668;BME280;3876;42.204;24.686;2023-12-20T10:08:24;99255.50;;;7.63;100.00
7668;BME280;3876;42.204;24.686;2023-12-20T10:10:51;99242.59;;;7.71;100.00
7668;BME280;3876;42.204;24.686;2023-12-20T10:13:18;99235.84;;;7.68;100.00
7668;BME280;3876;42.204;24.686;2023-12-20T10:15:45;99247.16;;;7.95;100.00
7668;BME280;3876;42.204;24.686;2023-12-20T10:18:12;99230.28;;;7.89;100.00
7668;BME280;3876;42.204;24.686;2023-12-20T10:20:40;99240.19;;;8.03;100.00
7668;BME280;3876;42.204;24.686;2023-12-20T10:23:08;99207.16;;;7.97;100.00
7668;BME280;3876;42.204;24.686;2023-12-20T10:25:35;99219.47;;;8.15;100.00
7668;BME280;3876;42.204;24.686;2023-12-20T10:28:09;99231.09;;;8.30;100.00
7668;BME280;3876;42.204;24.686;2023-12-20T10:30:37;99210.88;;;8.19;100.00
7668;BME280;3876;42.204;24.686;2023-12-20T10:33:05;99216.56;;;8.30;100.00
7668;BME280;3876;42.204;24.686;2023-12-20T10:35:32;99229.16;;;8.39;100.00
7668;BME280;3876;42.204;24.686;2023-12-20T10:38:03;99219.81;;;8.38;100.00
7668;BME280;3876;42.204;24.686;2023-12-20T10:40:34;99211.38;;;8.35;100.00
7668;BME280;3876;42.204;24.686;2023-12-20T10:43:02;99208.91;;;8.30;100.00
7668;BME280;3876;42.204;24.686;2023-12-20T10:45:29;99197.03;;;8.29;100.00
7668;BME280;3876;42.204;24.686;2023-12-20T10:47:57;99189.50;;;8.23;100.00
7668;BME280;3876;42.204;24.686;2023-12-20T10:50:26;99186.09;;;8.23;100.00
7668;BME280;3876;42.204;24.686;2023-12-20T10:52:54;99182.63;;;8.27;100.00
7668;BME280;3876;42.204;24.686;2023-12-20T10:55:22;99175.72;;;8.30;100.00
7668;BME280;3876;42.204;24.686;2023-12-20T10:57:51;99169.75;;;8.31;100.00
7668;BME280;3876;42.204;24.686;2023-12-20T11:00:18;99165.38;;;8.36;100.00
7668;BME280;3876;42.204;24.686;2023-12-20T11:02:45;99152.72;;;8.30;100.00
7668;BME280;3876;42.204;24.686;2023-12-20T11:05:23;99154.03;;;8.47;100.00
7668;BME280;3876;42.204;24.686;2023-12-20T11:07:54;99143.75;;;8.50;100.00
7668;BME280;3876;42.204;24.686;2023-12-20T11:10:26;99152.91;;;8.57;100.00
7668;BME280;3876;42.204;24.686;2023-12-20T11:13:01;99149.56;;;8.55;100.00
7668;BME280;3876;42.204;24.686;2023-12-20T11:15:35;99140.91;;;8.60;99.12
7668;BME280;3876;42.204;24.686;2023-12-20T11:18:04;99136.81;;;8.55;98.98
7668;BME280;3876;42.204;24.686;2023-12-20T11:20:36;99131.69;;;8.55;99.19
7668;BME280;3876;42.204;24.686;2023-12-20T11:23:04;99132.47;;;8.57;99.08
7668;BME280;3876;42.204;24.686;2023-12-20T11:25:46;99130.56;;;8.65;98.78
7668;BME280;3876;42.204;24.686;2023-12-20T11:28:14;99119.47;;;8.66;99.81
7668;BME280;3876;42.204;24.686;2023-12-20T11:30:47;99105.13;;;8.60;100.00
7668;BME280;3876;42.204;24.686;2023-12-20T11:33:14;99119.22;;;8.75;100.00
7668;BME280;3876;42.204;24.686;2023-12-20T11:35:41;99093.00;;;8.68;100.00
7668;BME280;3876;42.204;24.686;2023-12-20T11:38:09;99093.94;;;8.66;100.00
7668;BME280;3876;42.204;24.686;2023-12-20T11:40:36;99106.38;;;8.78;100.00
7668;BME280;3876;42.204;24.686;2023-12-20T11:43:03;99096.94;;;8.80;100.00
7668;BME280;3876;42.204;24.686;2023-12-20T11:45:32;99091.91;;;8.77;100.00
7668;BME280;3876;42.204;24.686;2023-12-20T11:48:01;99087.53;;;8.82;100.00
7668;BME280;3876;42.204;24.686;2023-12-20T11:50:28;99084.03;;;8.84;100.00
7668;BME280;3876;42.204;24.686;2023-12-20T11:52:56;99088.31;;;8.84;100.00
7668;BME280;3876;42.204;24.686;2023-12-20T11:55:24;99080.53;;;8.87;100.00
7668;BME280;3876;42.204;24.686;2023-12-20T11:57:51;99076.03;;;8.95;100.00
7668;BME280;3876;42.204;24.686;2023-12-20T12:00:18;99067.31;;;9.02;100.00
7668;BME280;3876;42.204;24.686;2023-12-20T12:02:57;99050.47;;;8.95;100.00
7668;BME280;3876;42.204;24.686;2023-12-20T12:05:24;99056.97;;;9.07;100.00
7668;BME280;3876;42.204;24.686;2023-12-20T12:07:51;99058.59;;;9.09;100.00
7668;BME280;3876;42.204;24.686;2023-12-20T12:10:19;99050.13;;;9.07;100.00
7668;BME280;3876;42.204;24.686;2023-12-20T12:12:47;99043.16;;;9.12;100.00
7668;BME280;3876;42.204;24.686;2023-12-20T12:15:14;99045.72;;;9.12;99.63
7668;BME280;3876;42.204;24.686;2023-12-20T12:17:41;99046.41;;;9.17;99.17
7668;BME280;3876;42.204;24.686;2023-12-20T12:20:10;99036.09;;;9.20;99.46
7668;BME280;3876;42.204;24.686;2023-12-20T12:22:37;99039.44;;;9.22;99.37
7668;BME280;3876;42.204;24.686;2023-12-20T12:25:11;99047.06;;;9.24;97.53
7668;BME280;3876;42.204;24.686;2023-12-20T12:27:40;99034.41;;;9.19;96.01
7668;BME280;3876;42.204;24.686;2023-12-20T12:30:08;99014.16;;;9.13;95.12
7668;BME280;3876;42.204;24.686;2023-12-20T12:32:35;99034.03;;;9.31;95.25
7668;BME280;3876;42.204;24.686;2023-12-20T12:35:03;99031.34;;;9.36;95.99
7668;BME280;3876;42.204;24.686;2023-12-20T12:37:34;99025.28;;;9.38;96.18
7668;BME280;3876;42.204;24.686;2023-12-20T12:40:00;99012.59;;;9.35;95.84
7668;BME280;3876;42.204;24.686;2023-12-20T12:42:28;99020.72;;;9.48;94.66
7668;BME280;3876;42.204;24.686;2023-12-20T12:44:55;99023.34;;;9.46;93.79
7668;BME280;3876;42.204;24.686;2023-12-20T12:47:21;99022.53;;;9.44;93.50
7668;BME280;3876;42.204;24.686;2023-12-20T12:49:51;99011.22;;;9.52;92.65
7668;BME280;3876;42.204;24.686;2023-12-20T12:52:18;99008.69;;;9.50;92.76
7668;BME280;3876;42.204;24.686;2023-12-20T12:54:46;99025.75;;;9.51;91.63
7668;BME280;3876;42.204;24.686;2023-12-20T12:57:14;99006.09;;;9.52;91.32
7668;BME280;3876;42.204;24.686;2023-12-20T12:59:41;99006.94;;;9.52;91.35
7668;BME280;3876;42.204;24.686;2023-12-20T13:02:08;99013.59;;;9.58;91.45
7668;BME280;3876;42.204;24.686;2023-12-20T13:04:34;98989.06;;;9.50;91.35
7668;BME280;3876;42.204;24.686;2023-12-20T13:07:01;99008.56;;;9.55;91.69
7668;BME280;3876;42.204;24.686;2023-12-20T13:09:28;99012.72;;;9.59;91.58
7668;BME280;3876;42.204;24.686;2023-12-20T13:11:56;99007.38;;;9.65;91.12
7668;BME280;3876;42.204;24.686;2023-12-20T13:14:24;99014.19;;;9.66;90.97